createdAt,value
2022-10-13T00:02:48.536Z,56.50
2022-10-13T00:12:50.771Z,56.40
2022-10-13T00:22:54.462Z,56.50
2022-10-13T00:32:56.211Z,56.60
2022-10-13T00:42:58.596Z,56.40
2022-10-13T00:53:01.538Z,56.40
2022-10-13T01:03:03.756Z,56.50
2022-10-13T01:13:29.944Z,56.40
2022-10-13T01:23:49.678Z,56.40
2022-10-13T01:34:02.248Z,56.60
2022-10-13T01:44:12.958Z,56.50
2022-10-13T01:54:16.843Z,56.40
2022-10-13T02:04:24.103Z,56.40
2022-10-13T02:14:29.876Z,56.40
2022-10-13T02:24:32.179Z,56.30
2022-10-13T02:34:33.985Z,56.40
2022-10-13T02:44:36.061Z,56.30
2022-10-13T02:54:37.868Z,56.20
2022-10-13T03:04:39.629Z,56.40
2022-10-13T03:14:41.466Z,56.30
2022-10-13T03:24:43.362Z,56.40
2022-10-13T03:34:45.092Z,56.10
2022-10-13T03:44:50.383Z,56.10
2022-10-13T03:54:55.518Z,56.20
2022-10-13T04:04:57.299Z,56.30
2022-10-13T04:14:59.212Z,56.40
2022-10-13T04:25:01.019Z,56.10
2022-10-13T04:35:04.138Z,56.40
2022-10-13T04:45:06.561Z,56.20
2022-10-13T04:55:09.084Z,56.20
2022-10-13T05:05:11.153Z,56.00
2022-10-13T05:15:12.939Z,55.90
2022-10-13T05:25:14.838Z,55.90
2022-10-13T05:35:16.729Z,55.80
2022-10-13T05:45:19.755Z,55.80
2022-10-13T05:55:21.522Z,55.90
2022-10-13T06:05:26.090Z,55.90
2022-10-13T06:15:29.949Z,55.80
2022-10-13T06:25:32.937Z,55.80
2022-10-13T06:35:34.717Z,55.80
2022-10-13T06:45:36.615Z,55.60
2022-10-13T06:55:39.775Z,55.60
2022-10-13T07:05:41.546Z,55.40
2022-10-13T07:15:43.301Z,55.50
2022-10-13T07:25:45.060Z,55.50
2022-10-13T07:35:46.908Z,55.90
2022-10-13T07:45:48.745Z,56.10
2022-10-13T07:55:53.285Z,56.10
2022-10-13T08:05:55.628Z,56.20
2022-10-13T08:16:00.307Z,56.20
2022-10-13T08:26:03.203Z,56.10
2022-10-13T08:36:06.454Z,55.80
2022-10-13T08:46:09.734Z,55.50
2022-10-13T08:56:28.719Z,56.10
2022-10-13T09:06:36.347Z,55.40
2022-10-13T09:16:42.252Z,55.50
2022-10-13T09:26:49.325Z,55.30
2022-10-13T09:37:01.332Z,55.20
2022-10-13T09:47:04.415Z,55.40
2022-10-13T09:57:27.751Z,55.50
2022-10-13T10:07:32.748Z,55.70
2022-10-13T10:17:46.561Z,55.70
2022-10-13T10:28:09.492Z,55.10
2022-10-13T10:38:14.304Z,54.10
2022-10-13T10:48:23.073Z,54.20
2022-10-13T10:58:27.585Z,54.70
2022-10-13T11:08:38.477Z,55.10
2022-10-13T11:18:55.181Z,55.10
2022-10-13T11:29:00.053Z,55.40
2022-10-13T11:39:28.953Z,55.40
2022-10-13T11:49:43.466Z,55.60
2022-10-13T11:59:49.095Z,55.70
2022-10-13T12:09:57.727Z,55.60
2022-10-13T12:20:19.585Z,55.50
2022-10-13T12:30:26.635Z,55.80
2022-10-13T12:40:29.391Z,55.60
2022-10-13T12:50:35.403Z,55.80
2022-10-13T13:00:37.296Z,56.40
2022-10-13T13:10:57.399Z,57.20
2022-10-13T13:20:59.379Z,57.20
2022-10-13T13:31:01.373Z,57.40
2022-10-13T13:41:04.101Z,57.30
2022-10-13T13:51:06.042Z,57.90
2022-10-13T14:01:08.602Z,57.70
2022-10-13T14:11:10.762Z,58.10
2022-10-13T14:21:12.717Z,58.90
2022-10-13T14:31:14.959Z,59.70
2022-10-13T14:41:17.902Z,58.80
2022-10-13T14:51:20.651Z,58.70
2022-10-13T15:01:22.597Z,58.50
2022-10-13T15:11:25.587Z,58.30
2022-10-13T15:21:27.518Z,58.10
2022-10-13T15:31:31.019Z,58.30
2022-10-13T15:41:32.790Z,58.80
2022-10-13T15:51:34.804Z,58.80
2022-10-13T16:01:36.936Z,58.50
2022-10-13T16:11:38.767Z,58.40
2022-10-13T16:21:40.805Z,58.50
2022-10-13T16:31:42.917Z,58.30
2022-10-13T16:41:44.735Z,58.30
2022-10-13T16:51:46.511Z,58.30
2022-10-13T17:01:48.866Z,58.30
2022-10-13T17:11:50.650Z,58.30
2022-10-13T17:21:52.550Z,58.10
2022-10-13T17:31:54.391Z,58.20
2022-10-13T17:41:57.456Z,58.10
2022-10-13T17:51:59.207Z,58.50
2022-10-13T18:02:01.051Z,58.10
2022-10-13T18:12:02.963Z,58.10
2022-10-13T18:22:04.824Z,57.80
2022-10-13T18:32:06.587Z,57.80
2022-10-13T18:42:08.539Z,57.80
2022-10-13T18:52:10.993Z,57.70
2022-10-13T19:02:15.030Z,58.50
2022-10-13T19:12:16.916Z,57.90
2022-10-13T19:22:18.711Z,58.10
2022-10-13T19:32:20.665Z,58.10
2022-10-13T19:42:22.464Z,58.10
2022-10-13T19:52:27.264Z,58.10
2022-10-13T20:02:29.039Z,58.10
2022-10-13T20:12:30.832Z,58.10
2022-10-13T20:22:32.604Z,58.10
2022-10-13T20:32:34.371Z,58.10
2022-10-13T20:42:36.152Z,59.30
2022-10-13T20:52:38.022Z,58.80
2022-10-13T21:02:40.126Z,59.40
2022-10-13T21:12:42.015Z,59.40
2022-10-13T21:22:43.845Z,59.50
2022-10-13T21:32:45.603Z,59.50
2022-10-13T21:42:47.537Z,59.50
2022-10-13T21:52:49.350Z,59.60
2022-10-13T22:02:51.104Z,59.50
2022-10-13T22:12:57.549Z,59.40
2022-10-13T22:22:59.299Z,59.40
2022-10-13T22:33:01.068Z,59.40
2022-10-13T22:43:03.015Z,59.40
2022-10-13T22:53:04.778Z,59.40
2022-10-13T23:03:06.707Z,59.40
2022-10-13T23:13:08.620Z,59.40
2022-10-13T23:23:10.542Z,59.30
2022-10-13T23:33:12.309Z,59.40
2022-10-13T23:43:14.906Z,59.30
2022-10-13T23:53:16.731Z,59.20
